createdAt,value
2019-03-22T00:01:53.023Z,170.87
2019-03-22T00:04:57.937Z,148.50
2019-03-22T00:08:02.813Z,168.43
2019-03-22T00:11:07.870Z,167.30
2019-03-22T00:14:12.763Z,161.20
2019-03-22T00:17:17.731Z,153.17
2019-03-22T00:20:22.626Z,157.63
2019-03-22T00:23:27.563Z,156.63
2019-03-22T00:26:32.691Z,162.67
2019-03-22T00:29:37.783Z,160.63
2019-03-22T00:32:42.683Z,161.27
2019-03-22T00:35:47.625Z,160.77
2019-03-22T00:38:52.568Z,158.37
2019-03-22T00:41:57.440Z,173.60
2019-03-22T00:45:02.355Z,174.07
2019-03-22T00:48:07.276Z,166.93
2019-03-22T00:51:12.221Z,159.23
2019-03-22T00:54:17.161Z,171.57
2019-03-22T00:57:28.417Z,168.50
2019-03-22T01:00:28.730Z,171.60
2019-03-22T01:03:33.651Z,162.60
2019-03-22T01:06:38.580Z,173.20
2019-03-22T01:10:02.368Z,176.07
2019-03-22T01:13:07.323Z,172.43
2019-03-22T01:16:12.212Z,169.47
2019-03-22T01:19:17.169Z,184.93
2019-03-22T01:22:22.107Z,171.27
2019-03-22T01:25:26.974Z,179.30
2019-03-22T01:28:31.881Z,171.93
2019-03-22T01:31:37.796Z,178.63
2019-03-22T01:34:42.717Z,174.77
2019-03-22T01:37:47.662Z,176.57
2019-03-22T01:40:52.606Z,175.97
2019-03-22T01:43:57.711Z,182.03
2019-03-22T01:47:02.551Z,173.80
2019-03-22T01:50:09.213Z,184.90
2019-03-22T01:53:14.149Z,168.67
2019-03-22T01:56:19.394Z,181.83
2019-03-22T01:59:24.282Z,177.87
2019-03-22T02:02:29.227Z,185.17
2019-03-22T02:05:34.036Z,190.93
2019-03-22T02:08:38.963Z,191.03
2019-03-22T02:11:43.898Z,198.30
2019-03-22T02:14:48.730Z,193.13
2019-03-22T02:17:54.241Z,191.97
2019-03-22T02:20:59.218Z,186.23
2019-03-22T02:24:04.296Z,187.50
2019-03-22T02:27:09.219Z,194.80
2019-03-22T02:30:14.775Z,187.23
2019-03-22T02:33:19.658Z,184.33
2019-03-22T02:36:24.534Z,197.33
2019-03-22T02:39:30.003Z,183.97
2019-03-22T02:42:35.033Z,186.23
2019-03-22T02:45:39.999Z,181.97
2019-03-22T02:48:44.915Z,189.97
2019-03-22T02:51:49.881Z,178.37
2019-03-22T02:54:54.780Z,180.40
2019-03-22T02:57:59.726Z,176.03
2019-03-22T03:01:04.671Z,179.80
2019-03-22T03:04:09.603Z,174.50
2019-03-22T03:07:14.507Z,173.20
2019-03-22T03:10:19.431Z,169.23
2019-03-22T03:13:24.389Z,172.13
2019-03-22T03:16:29.332Z,181.73
2019-03-22T03:19:34.241Z,179.27
2019-03-22T03:22:39.263Z,177.53
2019-03-22T03:25:44.157Z,168.37
2019-03-22T03:28:49.062Z,166.33
2019-03-22T03:31:54.002Z,166.67
2019-03-22T03:34:58.915Z,167.00
2019-03-22T03:38:03.806Z,165.07
2019-03-22T03:41:08.840Z,161.63
2019-03-22T03:44:13.795Z,153.17
2019-03-22T03:47:18.746Z,165.03
2019-03-22T03:50:23.665Z,153.73
2019-03-22T03:53:28.682Z,158.93
2019-03-22T03:56:33.551Z,158.30
2019-03-22T03:59:38.411Z,154.90
2019-03-22T04:02:43.301Z,160.97
2019-03-22T04:05:48.244Z,150.80
2019-03-22T04:08:53.191Z,153.40
2019-03-22T04:11:58.128Z,151.47
2019-03-22T04:15:03.072Z,139.67
2019-03-22T04:18:08.020Z,137.43
2019-03-22T04:21:12.909Z,143.57
2019-03-22T04:24:17.851Z,137.60
2019-03-22T04:27:22.733Z,143.13
2019-03-22T04:30:27.658Z,132.83
2019-03-22T04:33:32.491Z,130.83
2019-03-22T04:36:37.340Z,135.10
2019-03-22T04:39:42.226Z,137.13
2019-03-22T04:42:47.147Z,129.17
2019-03-22T04:45:53.162Z,124.57
2019-03-22T04:48:59.202Z,131.17
2019-03-22T04:52:04.691Z,131.93
2019-03-22T04:55:10.036Z,126.03
2019-03-22T04:58:17.520Z,121.60
2019-03-22T05:01:24.085Z,131.27
2019-03-22T05:04:29.678Z,138.77
2019-03-22T05:07:35.384Z,137.63
2019-03-22T05:10:40.488Z,130.60
2019-03-22T05:13:48.078Z,136.60
2019-03-22T05:16:55.185Z,131.87
2019-03-22T05:20:00.730Z,145.57
2019-03-22T05:23:06.867Z,135.60
2019-03-22T05:26:14.900Z,139.97
2019-03-22T05:29:30.120Z,127.60
2019-03-22T05:32:28.197Z,127.57
2019-03-22T05:35:33.128Z,148.40
2019-03-22T05:38:38.062Z,140.50
2019-03-22T05:41:42.983Z,142.57
2019-03-22T05:44:47.932Z,148.83
2019-03-22T05:47:52.836Z,136.50
2019-03-22T05:50:57.808Z,138.20
2019-03-22T05:54:03.060Z,134.97
2019-03-22T05:57:13.309Z,149.37
2019-03-22T06:00:16.497Z,141.63
2019-03-22T06:03:21.407Z,144.63
2019-03-22T06:06:26.304Z,139.43
2019-03-22T06:09:31.263Z,141.73
2019-03-22T06:12:36.183Z,135.27
2019-03-22T06:15:41.197Z,143.93
2019-03-22T06:18:46.459Z,139.40
2019-03-22T06:21:51.315Z,134.07
2019-03-22T06:24:56.531Z,132.77
2019-03-22T06:28:01.475Z,136.97
2019-03-22T06:31:06.376Z,138.73
2019-03-22T06:34:11.315Z,143.00
2019-03-22T06:37:16.256Z,152.47
2019-03-22T06:40:21.237Z,138.57
2019-03-22T06:43:26.132Z,139.90
2019-03-22T06:46:31.075Z,140.83
2019-03-22T06:49:36.007Z,141.10
2019-03-22T06:52:40.923Z,134.93
2019-03-22T06:55:45.770Z,143.33
2019-03-22T06:58:50.692Z,121.73
2019-03-22T07:01:55.610Z,123.07
2019-03-22T07:05:00.535Z,122.63
2019-03-22T07:08:05.454Z,122.83
2019-03-22T07:11:10.428Z,121.27
2019-03-22T07:14:15.326Z,112.07
2019-03-22T07:17:20.373Z,124.77
2019-03-22T07:20:25.258Z,117.93
2019-03-22T07:23:30.201Z,120.13
2019-03-22T07:26:35.184Z,113.23
2019-03-22T07:29:40.104Z,111.00
2019-03-22T07:32:44.939Z,114.83
2019-03-22T07:35:49.883Z,118.97
2019-03-22T07:38:54.756Z,109.00
2019-03-22T07:42:02.161Z,108.70
2019-03-22T07:45:07.944Z,116.80
2019-03-22T07:48:13.093Z,109.03
2019-03-22T07:51:19.713Z,115.47
2019-03-22T07:54:24.658Z,117.23
2019-03-22T07:57:29.595Z,109.83
2019-03-22T08:00:34.547Z,106.33
2019-03-22T08:03:39.448Z,105.83
2019-03-22T08:06:44.386Z,104.87
2019-03-22T08:09:51.248Z,103.97
2019-03-22T08:12:55.987Z,102.50
2019-03-22T08:16:01.323Z,97.93
2019-03-22T08:19:06.245Z,99.63
2019-03-22T08:22:11.167Z,100.77
2019-03-22T08:25:16.203Z,104.00
2019-03-22T08:28:21.135Z,99.50
2019-03-22T08:31:25.994Z,105.07
2019-03-22T08:34:30.932Z,98.77
2019-03-22T08:37:35.865Z,102.70
2019-03-22T08:40:40.774Z,91.97
2019-03-22T08:43:45.709Z,95.90
2019-03-22T08:46:50.601Z,93.73
2019-03-22T08:49:55.492Z,95.97
2019-03-22T08:53:00.387Z,89.73
2019-03-22T08:56:05.714Z,88.73
2019-03-22T08:59:13.355Z,86.57
2019-03-22T09:02:17.219Z,80.60
2019-03-22T09:05:22.119Z,83.27
2019-03-22T09:08:27.051Z,79.73
2019-03-22T09:11:31.940Z,78.57
2019-03-22T09:14:36.860Z,74.80
2019-03-22T09:17:41.761Z,69.37
2019-03-22T09:20:46.722Z,69.50
2019-03-22T09:23:51.630Z,64.13
2019-03-22T09:26:56.562Z,62.30
2019-03-22T09:30:01.476Z,66.87
2019-03-22T09:33:07.799Z,60.00
2019-03-22T09:36:12.679Z,60.10
2019-03-22T09:39:17.637Z,63.47
2019-03-22T09:42:22.522Z,53.10
2019-03-22T09:45:27.477Z,59.77
2019-03-22T09:48:32.344Z,54.80
2019-03-22T09:51:37.251Z,47.37
2019-03-22T09:54:42.092Z,46.90
2019-03-22T09:57:49.329Z,44.80
2019-03-22T10:00:53.585Z,48.27
2019-03-22T10:03:58.542Z,44.03
2019-03-22T10:07:04.016Z,43.03
2019-03-22T10:10:09.066Z,44.53
2019-03-22T10:13:14.039Z,41.27
2019-03-22T10:16:18.917Z,43.93
2019-03-22T10:19:23.821Z,42.63
2019-03-22T10:22:28.760Z,36.33
2019-03-22T10:25:33.670Z,34.63
2019-03-22T10:28:38.612Z,35.63
2019-03-22T10:31:43.618Z,34.40
2019-03-22T10:34:48.554Z,33.23
2019-03-22T10:38:00.475Z,34.23
2019-03-22T10:41:00.089Z,37.63
2019-03-22T10:44:05.071Z,30.87
2019-03-22T10:47:09.960Z,31.33
2019-03-22T10:50:15.012Z,31.77
2019-03-22T10:53:19.953Z,30.73
2019-03-22T10:56:25.085Z,29.67
2019-03-22T10:59:30.147Z,27.07
2019-03-22T11:02:35.047Z,37.30
2019-03-22T11:05:39.974Z,24.83
2019-03-22T11:08:44.871Z,26.37
2019-03-22T11:11:49.790Z,27.70
2019-03-22T11:14:54.665Z,24.20
2019-03-22T11:17:59.539Z,24.60
2019-03-22T11:21:05.414Z,23.77
2019-03-22T11:24:10.700Z,26.23
2019-03-22T11:27:15.503Z,23.50
2019-03-22T11:30:21.043Z,25.87
2019-03-22T11:33:25.875Z,26.43
2019-03-22T11:36:30.904Z,25.73
2019-03-22T11:39:35.792Z,27.60
2019-03-22T11:42:40.724Z,27.40
2019-03-22T11:45:45.660Z,27.10
2019-03-22T11:48:50.600Z,27.27
2019-03-22T11:51:55.490Z,28.63
2019-03-22T11:55:00.657Z,27.63
2019-03-22T11:58:05.822Z,28.17
2019-03-22T12:01:19.415Z,24.93
2019-03-22T12:04:17.349Z,33.23
2019-03-22T12:07:22.279Z,32.43
2019-03-22T12:10:27.148Z,30.30
2019-03-22T12:13:32.099Z,34.00
2019-03-22T12:16:38.387Z,35.80
2019-03-22T12:19:43.252Z,37.70
2019-03-22T12:22:48.167Z,35.10
2019-03-22T12:25:53.130Z,39.43
2019-03-22T12:28:58.029Z,34.93
2019-03-22T12:32:02.971Z,38.43
2019-03-22T12:35:09.296Z,37.63
2019-03-22T12:38:14.252Z,39.67
2019-03-22T12:41:19.127Z,38.00
2019-03-22T12:44:23.999Z,37.20
2019-03-22T12:47:28.911Z,46.10
2019-03-22T12:50:33.828Z,37.03
2019-03-22T12:53:38.685Z,40.50
2019-03-22T12:56:43.628Z,42.23
2019-03-22T12:59:48.444Z,42.60
2019-03-22T13:02:53.684Z,39.17
2019-03-22T13:05:58.581Z,47.23
2019-03-22T13:09:03.876Z,42.07
2019-03-22T13:12:08.767Z,43.20
2019-03-22T13:15:13.899Z,48.93
2019-03-22T13:18:18.804Z,46.93
2019-03-22T13:21:23.736Z,50.57
2019-03-22T13:24:28.644Z,51.03
2019-03-22T13:27:33.588Z,53.40
2019-03-22T13:30:38.775Z,51.97
2019-03-22T13:33:43.701Z,55.90
2019-03-22T13:36:48.539Z,49.30
2019-03-22T13:39:53.711Z,59.50
2019-03-22T13:42:58.619Z,57.63
2019-03-22T13:46:03.493Z,52.00
2019-03-22T13:49:08.388Z,55.97
2019-03-22T13:52:14.289Z,52.83
2019-03-22T13:55:19.284Z,51.73
2019-03-22T13:58:24.322Z,64.33
2019-03-22T14:01:29.330Z,57.27
2019-03-22T14:04:34.285Z,55.17
2019-03-22T14:07:39.198Z,54.70
2019-03-22T14:10:44.185Z,50.17
2019-03-22T14:13:49.123Z,57.17
2019-03-22T14:16:54.168Z,53.23
2019-03-22T14:19:59.128Z,54.73
2019-03-22T14:23:06.385Z,57.53
2019-03-22T14:26:11.327Z,51.10
2019-03-22T14:29:16.297Z,56.20
2019-03-22T14:32:21.195Z,63.23
2019-03-22T14:35:28.365Z,58.67
2019-03-22T14:38:32.713Z,66.37
2019-03-22T14:41:37.641Z,74.83
2019-03-22T14:44:42.573Z,66.07
2019-03-22T14:47:48.195Z,66.27
2019-03-22T14:50:53.128Z,58.03
2019-03-22T14:53:58.083Z,58.90
2019-03-22T14:57:02.997Z,56.67
2019-03-22T15:00:08.076Z,59.17
2019-03-22T15:03:25.929Z,53.83
2019-03-22T15:06:30.864Z,52.03
2019-03-22T15:09:35.789Z,56.07
2019-03-22T15:12:40.848Z,52.03
2019-03-22T15:16:04.703Z,54.70
2019-03-22T15:19:31.394Z,57.50
2019-03-22T15:23:04.279Z,60.07
2019-03-22T15:26:40.668Z,56.80
2019-03-22T15:30:23.713Z,62.73
2019-03-22T15:33:46.614Z,63.40
2019-03-22T15:37:10.582Z,60.53
2019-03-22T15:40:15.592Z,68.73
2019-03-22T15:43:20.507Z,66.90
2019-03-22T15:46:25.479Z,62.93
2019-03-22T15:49:30.407Z,73.10
2019-03-22T15:52:35.367Z,77.87
2019-03-22T15:55:40.272Z,75.53
2019-03-22T15:58:45.387Z,74.57
2019-03-22T16:01:50.323Z,79.93
2019-03-22T16:04:55.276Z,73.20
2019-03-22T16:08:00.181Z,74.27
2019-03-22T16:11:05.123Z,73.13
2019-03-22T16:14:10.082Z,70.80
2019-03-22T16:17:33.801Z,71.83
2019-03-22T16:20:39.892Z,68.93
2019-03-22T16:23:44.767Z,60.60
2019-03-22T16:26:49.685Z,62.07
2019-03-22T16:29:54.683Z,62.90
2019-03-22T16:32:59.587Z,54.90
2019-03-22T16:36:04.697Z,58.53
2019-03-22T16:39:10.066Z,59.57
2019-03-22T16:42:15.014Z,55.80
2019-03-22T16:45:35.028Z,54.23
2019-03-22T16:48:40.057Z,52.67
2019-03-22T16:51:44.983Z,52.13
2019-03-22T16:54:49.900Z,50.23
2019-03-22T16:57:54.906Z,47.73
2019-03-22T17:00:59.953Z,54.43
2019-03-22T17:04:04.940Z,52.87
2019-03-22T17:07:09.977Z,57.03
2019-03-22T17:10:14.892Z,64.13
2019-03-22T17:13:20.253Z,57.83
2019-03-22T17:16:25.159Z,62.40
2019-03-22T17:19:30.126Z,58.23
2019-03-22T17:22:35.105Z,57.37
2019-03-22T17:25:40.031Z,59.30
2019-03-22T17:28:44.941Z,61.20
2019-03-22T17:31:49.831Z,57.80
2019-03-22T17:34:54.754Z,60.87
2019-03-22T17:37:59.720Z,64.00
2019-03-22T17:41:06.625Z,60.53
2019-03-22T17:44:11.571Z,57.43
2019-03-22T17:47:16.506Z,60.57
2019-03-22T17:50:22.455Z,60.10
2019-03-22T17:53:27.361Z,62.30
2019-03-22T17:56:32.294Z,59.77
2019-03-22T17:59:37.200Z,58.50
2019-03-22T18:02:43.787Z,67.07
2019-03-22T18:05:48.740Z,61.60
2019-03-22T18:08:53.712Z,61.77
2019-03-22T18:11:58.646Z,60.77
2019-03-22T18:15:03.624Z,60.43
2019-03-22T18:18:08.712Z,60.43
2019-03-22T18:21:13.769Z,62.97
2019-03-22T18:24:18.799Z,66.97
2019-03-22T18:27:23.880Z,66.33
2019-03-22T18:30:28.888Z,65.43
2019-03-22T18:33:33.830Z,66.27
2019-03-22T18:36:38.815Z,69.13
2019-03-22T18:39:44.003Z,83.90
2019-03-22T18:42:48.946Z,98.67
2019-03-22T18:45:54.208Z,86.23
2019-03-22T18:48:59.266Z,96.87
2019-03-22T18:52:04.233Z,99.30
2019-03-22T18:55:09.563Z,97.53
2019-03-22T18:58:14.413Z,118.47
2019-03-22T19:01:19.338Z,108.00
2019-03-22T19:04:25.754Z,99.17
2019-03-22T19:07:31.348Z,94.87
2019-03-22T19:10:36.593Z,98.00
2019-03-22T19:13:41.578Z,98.70
2019-03-22T19:16:48.100Z,94.03
2019-03-22T19:19:53.004Z,96.17
2019-03-22T19:22:57.952Z,95.87
2019-03-22T19:26:02.874Z,98.67
2019-03-22T19:29:07.799Z,99.73
2019-03-22T19:32:13.803Z,105.93
2019-03-22T19:35:29.417Z,110.00
2019-03-22T19:38:34.341Z,110.30
2019-03-22T19:41:39.294Z,100.13
2019-03-22T19:44:44.218Z,106.07
2019-03-22T19:47:49.152Z,108.80
2019-03-22T19:50:54.128Z,104.57
2019-03-22T19:53:59.061Z,106.20
2019-03-22T19:57:04.147Z,110.53
2019-03-22T20:00:09.237Z,108.93
2019-03-22T20:03:14.174Z,116.80
2019-03-22T20:06:19.169Z,117.37
2019-03-22T20:09:24.068Z,119.90
2019-03-22T20:12:29.164Z,121.93
2019-03-22T20:15:34.077Z,139.60
2019-03-22T20:18:40.418Z,132.83
2019-03-22T20:21:45.329Z,149.40
2019-03-22T20:24:50.267Z,151.87
2019-03-22T20:27:55.260Z,153.33
2019-03-22T20:31:00.181Z,154.57
2019-03-22T20:34:05.195Z,152.27
2019-03-22T20:37:10.303Z,154.70
2019-03-22T20:40:16.274Z,163.80
2019-03-22T20:43:21.351Z,164.23
2019-03-22T20:46:26.647Z,158.70
2019-03-22T20:49:31.523Z,165.47
2019-03-22T20:52:37.964Z,161.63
2019-03-22T20:55:43.047Z,167.90
2019-03-22T20:58:48.044Z,166.50
2019-03-22T21:01:52.974Z,151.43
2019-03-22T21:04:57.901Z,166.03
2019-03-22T21:08:02.915Z,224.40
2019-03-22T21:11:07.860Z,189.13
2019-03-22T21:14:12.834Z,206.17
2019-03-22T21:17:17.772Z,193.90
2019-03-22T21:20:22.776Z,205.47
2019-03-22T21:23:35.996Z,197.00
2019-03-22T21:26:34.323Z,186.70
2019-03-22T21:29:44.463Z,197.93
2019-03-22T21:32:53.027Z,184.13
2019-03-22T21:36:00.630Z,187.53
2019-03-22T21:39:07.383Z,174.03
2019-03-22T21:42:12.289Z,179.30
2019-03-22T21:45:17.229Z,208.53
2019-03-22T21:48:22.156Z,290.37
2019-03-22T21:51:27.305Z,322.13
2019-03-22T21:54:32.268Z,289.23
2019-03-22T21:57:37.300Z,302.13
2019-03-22T22:00:42.230Z,281.10
2019-03-22T22:03:47.191Z,276.67
2019-03-22T22:06:52.157Z,267.93
2019-03-22T22:09:57.181Z,250.70
2019-03-22T22:13:02.093Z,246.73
2019-03-22T22:16:07.010Z,228.03
2019-03-22T22:19:11.902Z,213.70
2019-03-22T22:22:16.999Z,201.30
2019-03-22T22:25:21.919Z,192.00
2019-03-22T22:28:26.858Z,197.00
2019-03-22T22:31:31.754Z,194.37
2019-03-22T22:34:36.728Z,184.90
2019-03-22T22:37:41.636Z,194.00
2019-03-22T22:40:46.592Z,188.80
2019-03-22T22:43:51.435Z,175.57
2019-03-22T22:46:56.513Z,186.60
2019-03-22T22:50:01.415Z,170.67
2019-03-22T22:53:06.331Z,164.73
2019-03-22T22:56:11.258Z,152.27
2019-03-22T22:59:16.191Z,146.80
2019-03-22T23:02:21.107Z,151.43
2019-03-22T23:05:26.109Z,140.27
2019-03-22T23:08:31.006Z,145.43
2019-03-22T23:11:35.935Z,130.63
2019-03-22T23:14:40.768Z,129.67
2019-03-22T23:17:45.719Z,126.83
2019-03-22T23:20:50.636Z,119.03
2019-03-22T23:23:56.061Z,122.10
2019-03-22T23:27:00.942Z,117.40
2019-03-22T23:30:07.632Z,119.07
2019-03-22T23:33:12.627Z,121.47
2019-03-22T23:36:20.406Z,117.33
2019-03-22T23:39:24.070Z,114.10
2019-03-22T23:42:29.072Z,116.10
2019-03-22T23:45:34.003Z,105.53
2019-03-22T23:48:38.947Z,102.77
2019-03-22T23:51:43.846Z,99.40
2019-03-22T23:54:48.786Z,102.40
2019-03-22T23:57:53.936Z,100.13
